Time;durP1;ratioP1;P1;durP2;ratioP2;P2;SDS_P1;SDS_P2;PMS_P1;PMS_P2;Temp;Humidity;BMP_temperature;BMP_pressure;BME280_temperature;BME280_humidity;BME280_pressure;Samples;Min_cycle;Max_cycle;Signal;HPM_P1;HPM_P2
2021/09/25 10:12:08;;;;;;;15.87;14.87;;;24.50;99.90;;;;;;4924618;28;20465;-70
2021/09/25 10:14:37;;;;;;;14.83;13.70;;;25.30;99.90;;;;;;5054102;28;20479;-71
2021/09/25 10:17:07;;;;;;;15.33;14.33;;;26.20;99.90;;;;;;5013483;28;20502;-70
2021/09/25 10:19:36;;;;;;;17.37;16.07;;;26.70;99.90;;;;;;5006587;28;20457;-71
2021/09/25 10:22:07;;;;;;;16.80;15.80;;;26.90;99.90;;;;;;5011753;27;20473;-71
2021/09/25 10:24:37;;;;;;;15.97;15.07;;;26.80;99.90;;;;;;5008397;28;20987;-70
2021/09/25 10:27:07;;;;;;;17.33;16.30;;;26.00;99.90;;;;;;5005771;28;20965;-70
2021/09/25 10:29:34;;;;;;;18.10;16.93;;;25.70;99.90;;;;;;5000976;28;20465;-71
2021/09/25 10:32:21;;;;;;;17.23;16.03;;;25.30;99.90;;;;;;5007441;28;20847;-71
2021/09/25 10:35:08;;;;;;;16.73;15.53;;;24.50;99.90;;;;;;5007595;28;20555;-70
2021/09/25 10:37:37;;;;;;;16.43;15.33;;;24.70;99.90;;;;;;5010917;28;20481;-71
2021/09/25 10:40:06;;;;;;;18.00;16.53;;;25.00;99.90;;;;;;5006570;28;20457;-72
2021/09/25 10:42:40;;;;;;;16.87;15.67;;;24.80;99.90;;;;;;5009754;28;20468;-69
2021/09/25 10:45:12;;;;;;;17.70;16.37;;;24.10;99.90;;;;;;5003336;28;20454;-70
2021/09/25 10:47:41;;;;;;;17.70;16.30;;;24.40;99.90;;;;;;5011050;28;20460;-69
2021/09/25 10:50:14;;;;;;;18.93;17.73;;;24.80;99.90;;;;;;5009982;28;20468;-70
2021/09/25 10:52:50;;;;;;;17.43;15.97;;;25.00;99.90;;;;;;5007840;27;20515;-68
2021/09/25 10:55:26;;;;;;;16.03;14.90;;;24.80;99.90;;;;;;5010445;28;20859;-70
2021/09/25 10:58:16;;;;;;;16.10;15.10;;;25.00;99.90;;;;;;5001375;28;20548;-70
2021/09/25 11:01:08;;;;;;;15.83;14.83;;;25.00;99.90;;;;;;5008647;28;20954;-70
2021/09/25 11:04:06;;;;;;;17.13;15.93;;;26.90;99.90;;;;;;5006993;28;20509;-69
2021/09/25 11:06:43;;;;;;;17.13;16.00;;;28.90;99.90;;;;;;5010181;28;20474;-70
2021/09/25 11:09:17;;;;;;;16.23;15.13;;;30.00;99.90;;;;;;5008605;28;20457;-70
2021/09/25 11:11:50;;;;;;;16.03;15.03;;;29.80;99.90;;;;;;5001406;28;20457;-70
2021/09/25 11:14:25;;;;;;;15.77;14.67;;;30.20;99.90;;;;;;4999172;28;20489;-70
2021/09/25 11:17:10;;;;;;;16.20;15.27;;;29.60;99.90;;;;;;5007991;28;20470;-69
2021/09/25 11:19:42;;;;;;;16.73;15.73;;;29.40;99.90;;;;;;5010968;28;20493;-70
2021/09/25 11:22:15;;;;;;;17.27;16.07;;;29.90;98.90;;;;;;5023043;28;20468;-70
2021/09/25 11:24:44;;;;;;;17.17;15.77;;;30.40;98.20;;;;;;5002898;28;20462;-70
2021/09/25 11:27:14;;;;;;;16.63;15.47;;;30.90;97.70;;;;;;5007082;28;20472;-70
2021/09/25 11:30:11;;;;;;;17.53;16.30;;;31.80;96.90;;;;;;5004735;28;20457;-70
2021/09/25 11:32:41;;;;;;;16.17;15.20;;;30.60;95.40;;;;;;5033880;28;20462;-70
2021/09/25 11:35:13;;;;;;;16.73;15.63;;;30.80;96.20;;;;;;5012829;28;20942;-71
2021/09/25 11:37:51;;;;;;;16.33;15.10;;;30.80;95.60;;;;;;5009644;28;20453;-70
2021/09/25 11:40:19;;;;;;;16.70;15.50;;;31.60;94.60;;;;;;5006704;28;21369;-71
2021/09/25 11:42:46;;;;;;;20.93;19.27;;;31.10;94.00;;;;;;4998254;28;20958;-71
2021/09/25 11:45:17;;;;;;;17.93;16.63;;;30.80;94.30;;;;;;5009067;28;20458;-71
2021/09/25 11:47:45;;;;;;;19.23;17.73;;;30.20;94.00;;;;;;5001928;28;20563;-69
2021/09/25 11:50:17;;;;;;;18.53;17.13;;;30.70;93.50;;;;;;5007155;28;20469;-72
2021/09/25 11:52:48;;;;;;;20.13;18.33;;;30.90;93.20;;;;;;5004593;28;20461;-71
2021/09/25 11:55:16;;;;;;;16.47;15.03;;;30.90;93.80;;;;;;4998764;28;20476;-70
2021/09/25 11:57:49;;;;;;;16.67;15.10;;;31.00;93.90;;;;;;5001357;28;20458;-71
2021/09/25 12:00:25;;;;;;;16.73;15.17;;;30.90;94.00;;;;;;5004567;28;20466;-71
2021/09/25 12:02:53;;;;;;;16.50;15.00;;;30.90;93.80;;;;;;5014857;28;20474;-73
2021/09/25 12:05:30;;;;;;;17.27;15.57;;;30.90;93.20;;;;;;5001999;28;20480;-73
2021/09/25 12:07:59;;;;;;;18.20;16.73;;;31.40;92.40;;;;;;5003711;28;20568;-71
2021/09/25 12:10:29;;;;;;;16.10;14.90;;;31.90;91.20;;;;;;5012378;28;20469;-71
2021/09/25 12:12:59;;;;;;;15.00;14.03;;;32.30;89.20;;;;;;5007662;28;20487;-71
2021/09/25 12:15:30;;;;;;;15.60;14.60;;;32.90;85.00;;;;;;5008686;28;20819;-71
2021/09/25 12:18:25;;;;;;;15.20;14.00;;;33.30;84.50;;;;;;5006165;28;20547;-71
2021/09/25 12:20:56;;;;;;;15.03;13.77;;;33.70;82.70;;;;;;5004805;28;20469;-71
2021/09/25 12:23:26;;;;;;;14.90;13.67;;;32.60;84.50;;;;;;5012456;27;20468;-71
2021/09/25 12:25:54;;;;;;;14.27;13.37;;;33.10;82.10;;;;;;5013677;28;20450;-71
2021/09/25 12:28:46;;;;;;;15.07;14.00;;;32.80;83.90;;;;;;5008627;28;20531;-71
2021/09/25 12:31:18;;;;;;;14.40;13.50;;;33.40;82.60;;;;;;5013564;28;20468;-71
2021/09/25 12:33:50;;;;;;;15.90;14.27;;;34.00;81.40;;;;;;5011298;28;20457;-71
2021/09/25 12:36:20;;;;;;;16.20;15.10;;;34.20;79.00;;;;;;5005104;28;21019;-72
2021/09/25 12:38:47;;;;;;;17.43;14.40;;;34.00;74.70;;;;;;5008517;27;20866;-71
2021/09/25 12:41:17;;;;;;;15.10;13.70;;;32.80;76.80;;;;;;5007545;27;20465;-72
2021/09/25 12:43:46;;;;;;;16.23;14.57;;;32.40;77.10;;;;;;5007185;28;20477;-73
2021/09/25 12:46:16;;;;;;;18.30;14.40;;;32.60;76.50;;;;;;5006362;28;20467;-73
2021/09/25 12:49:10;;;;;;;14.73;13.67;;;32.50;74.60;;;;;;5008555;28;21091;-71
2021/09/25 12:51:42;;;;;;;14.07;12.90;;;32.90;71.30;;;;;;5006927;28;20649;-73
2021/09/25 12:54:12;;;;;;;14.90;13.80;;;33.40;73.20;;;;;;5006410;28;20469;-71
2021/09/25 12:56:48;;;;;;;13.67;12.57;;;33.10;73.40;;;;;;5017035;28;20473;-72
2021/09/25 12:59:17;;;;;;;14.17;13.23;;;33.40;70.30;;;;;;5008764;28;20493;-71
2021/09/25 13:01:46;;;;;;;14.97;13.93;;;33.60;68.80;;;;;;5013239;28;20445;-73
2021/09/25 13:04:19;;;;;;;14.90;13.40;;;33.70;67.80;;;;;;5008924;27;20492;-71
2021/09/25 13:06:48;;;;;;;14.37;13.23;;;33.30;65.00;;;;;;5008634;28;20463;-71
2021/09/25 13:09:15;;;;;;;13.40;12.30;;;32.40;67.70;;;;;;5014162;28;20457;-74
2021/09/25 13:12:20;;;;;;;13.40;12.33;;;33.00;66.80;;;;;;5006394;28;20466;-73
2021/09/25 13:14:59;;;;;;;12.37;11.57;;;33.30;67.20;;;;;;5010307;28;20488;-73
2021/09/25 13:17:28;;;;;;;14.07;13.13;;;32.80;65.60;;;;;;5018374;28;20460;-71
2021/09/25 13:19:56;;;;;;;12.97;12.23;;;33.60;66.30;;;;;;5015255;28;20869;-72
2021/09/25 13:22:24;;;;;;;13.97;12.67;;;33.70;66.80;;;;;;5009821;27;20466;-71
2021/09/25 13:24:52;;;;;;;14.20;12.90;;;34.10;66.40;;;;;;5004924;28;20469;-73
2021/09/25 13:27:19;;;;;;;13.80;12.87;;;33.70;64.10;;;;;;5011972;28;20487;-71
2021/09/25 13:29:46;;;;;;;13.53;12.73;;;33.50;66.50;;;;;;5004990;28;20473;-71
2021/09/25 13:32:13;;;;;;;14.30;13.23;;;34.00;64.60;;;;;;5015812;28;20476;-72
2021/09/25 13:34:40;;;;;;;13.97;12.83;;;34.30;64.70;;;;;;5001601;28;20462;-73
2021/09/25 13:37:08;;;;;;;14.03;13.13;;;34.20;64.80;;;;;;5007171;28;20456;-73
2021/09/25 13:39:37;;;;;;;14.10;13.10;;;34.20;64.20;;;;;;5006352;28;20485;-72
2021/09/25 13:42:04;;;;;;;14.10;13.00;;;34.40;63.30;;;;;;5005052;28;20460;-72
2021/09/25 13:44:32;;;;;;;13.83;12.80;;;34.20;62.70;;;;;;5007617;28;20939;-72
2021/09/25 13:46:59;;;;;;;14.67;13.37;;;34.60;63.10;;;;;;5009621;28;20561;-75
2021/09/25 13:49:26;;;;;;;14.30;13.30;;;34.60;64.30;;;;;;5010349;28;20464;-73
2021/09/25 13:51:54;;;;;;;13.07;12.37;;;34.70;62.60;;;;;;5013261;28;20472;-72
2021/09/25 13:54:20;;;;;;;14.47;13.27;;;33.80;63.50;;;;;;5005886;28;20461;-72
2021/09/25 13:56:49;;;;;;;14.40;13.53;;;33.30;63.80;;;;;;5003735;28;20925;-72
2021/09/25 13:59:16;;;;;;;14.83;13.50;;;33.50;63.80;;;;;;5002582;28;20482;-72
2021/09/25 14:01:44;;;;;;;13.93;12.80;;;33.40;64.20;;;;;;5011499;28;20465;-72
2021/09/25 14:04:11;;;;;;;13.77;12.60;;;33.60;63.40;;;;;;5004780;28;20481;-72
2021/09/25 14:06:38;;;;;;;13.50;12.80;;;33.60;63.00;;;;;;5012569;28;20487;-72
2021/09/25 14:09:05;;;;;;;15.47;14.37;;;33.60;64.90;;;;;;5007813;28;20496;-73
2021/09/25 14:11:32;;;;;;;13.07;12.10;;;33.20;62.90;;;;;;5013430;28;20468;-72
2021/09/25 14:14:00;;;;;;;14.77;13.40;;;33.40;64.10;;;;;;5009050;28;20517;-71
2021/09/25 14:16:28;;;;;;;13.60;12.90;;;33.40;64.10;;;;;;5009772;28;20458;-74
2021/09/25 14:18:55;;;;;;;14.80;13.50;;;33.30;63.70;;;;;;5006909;28;20484;-72
2021/09/25 14:21:23;;;;;;;14.70;13.57;;;33.20;63.70;;;;;;5010938;27;21005;-72
2021/09/25 14:23:50;;;;;;;14.40;13.60;;;33.50;63.90;;;;;;5007257;28;20477;-74
2021/09/25 14:26:16;;;;;;;12.93;12.10;;;34.10;63.10;;;;;;5012683;28;20460;-73
2021/09/25 14:28:44;;;;;;;14.07;13.27;;;34.60;63.80;;;;;;5007005;28;20477;-72
2021/09/25 14:31:12;;;;;;;14.30;13.10;;;34.40;65.20;;;;;;5009475;28;20507;-72
2021/09/25 14:33:39;;;;;;;14.07;13.00;;;34.60;63.60;;;;;;5010619;28;20476;-72
2021/09/25 14:36:06;;;;;;;14.07;13.00;;;34.50;64.50;;;;;;5009400;28;20462;-76
2021/09/25 14:38:34;;;;;;;13.13;12.37;;;34.70;65.20;;;;;;5002526;28;20993;-72
2021/09/25 14:41:01;;;;;;;13.50;12.63;;;34.10;64.70;;;;;;5005191;28;20461;-74
2021/09/25 14:43:29;;;;;;;14.57;13.57;;;34.30;64.70;;;;;;5008521;28;20452;-72
2021/09/25 14:45:56;;;;;;;13.73;13.03;;;34.20;64.60;;;;;;5008114;28;20449;-73
2021/09/25 14:48:25;;;;;;;13.33;12.70;;;34.10;64.50;;;;;;5014913;28;20472;-75
2021/09/25 14:50:54;;;;;;;14.60;13.30;;;33.60;65.40;;;;;;5015156;28;20457;-71
2021/09/25 14:53:21;;;;;;;14.33;13.43;;;32.90;67.00;;;;;;5001477;28;20821;-70
2021/09/25 14:55:48;;;;;;;14.43;13.27;;;32.90;67.20;;;;;;5007959;28;20552;-71
2021/09/25 14:58:15;;;;;;;13.90;13.20;;;31.90;69.40;;;;;;5008973;28;20488;-70
2021/09/25 15:00:42;;;;;;;13.23;12.53;;;32.60;69.70;;;;;;5007065;28;20501;-71
2021/09/25 15:03:09;;;;;;;14.07;13.27;;;33.40;68.30;;;;;;5003399;28;20486;-70
2021/09/25 15:05:38;;;;;;;13.80;12.90;;;33.50;66.30;;;;;;5012060;28;20818;-71
2021/09/25 15:08:05;;;;;;;14.37;13.30;;;33.70;66.10;;;;;;5007773;28;20997;-71
2021/09/25 15:10:32;;;;;;;14.27;13.20;;;33.80;65.00;;;;;;5003064;28;20454;-73
2021/09/25 15:12:59;;;;;;;17.10;13.07;;;34.00;65.60;;;;;;5006685;28;20481;-70
2021/09/25 15:15:27;;;;;;;14.00;13.20;;;34.20;66.00;;;;;;5005619;28;20548;-70
2021/09/25 15:17:54;;;;;;;14.23;13.53;;;34.20;64.80;;;;;;5007238;28;20864;-72
2021/09/25 15:20:21;;;;;;;14.80;13.47;;;32.90;66.80;;;;;;5012610;28;20566;-71
2021/09/25 15:22:50;;;;;;;14.17;13.07;;;32.70;68.60;;;;;;5014404;28;20975;-73
2021/09/25 15:25:16;;;;;;;13.30;12.50;;;32.90;67.80;;;;;;5009206;28;20462;-73
2021/09/25 15:27:44;;;;;;;14.57;13.23;;;33.00;67.00;;;;;;5011890;28;20487;-70
2021/09/25 15:30:12;;;;;;;14.97;13.87;;;33.10;67.70;;;;;;5011506;28;20673;-71
2021/09/25 15:32:39;;;;;;;14.53;13.57;;;33.10;67.90;;;;;;5008150;28;20466;-72
2021/09/25 15:35:06;;;;;;;13.73;13.03;;;33.10;66.80;;;;;;5004564;28;20469;-71
2021/09/25 15:37:33;;;;;;;13.83;12.67;;;32.70;67.60;;;;;;5013799;28;20467;-71
2021/09/25 15:40:02;;;;;;;13.57;12.50;;;32.50;68.20;;;;;;5012778;28;20501;-71
2021/09/25 15:42:30;;;;;;;13.60;12.77;;;32.30;67.90;;;;;;5008380;28;20953;-70
2021/09/25 15:44:57;;;;;;;14.00;13.20;;;32.30;68.60;;;;;;5010572;28;20484;-71
2021/09/25 15:47:25;;;;;;;13.43;11.93;;;31.80;67.60;;;;;;5010298;28;20979;-71
2021/09/25 15:49:52;;;;;;;12.43;11.83;;;31.60;68.10;;;;;;5011786;28;20800;-70
2021/09/25 15:52:19;;;;;;;13.30;12.60;;;31.60;68.40;;;;;;5009755;28;20461;-71
2021/09/25 15:54:46;;;;;;;13.83;12.87;;;31.70;69.80;;;;;;5012842;28;20453;-71
2021/09/25 15:57:15;;;;;;;13.87;12.97;;;31.80;69.90;;;;;;5009213;28;20828;-71
2021/09/25 15:59:42;;;;;;;13.60;12.90;;;31.70;69.00;;;;;;5007792;28;20477;-70
2021/09/25 16:02:09;;;;;;;13.73;12.80;;;31.50;68.60;;;;;;5013379;28;20466;-71
2021/09/25 16:04:36;;;;;;;13.60;12.80;;;31.60;69.00;;;;;;5011890;28;20484;-72
2021/09/25 16:07:04;;;;;;;13.07;12.30;;;31.80;68.30;;;;;;5008567;28;20477;-70
2021/09/25 16:09:31;;;;;;;12.70;12.10;;;31.60;68.40;;;;;;5011847;28;20469;-71
2021/09/25 16:11:59;;;;;;;12.83;12.13;;;31.50;68.10;;;;;;5011100;28;20457;-70
2021/09/25 16:14:28;;;;;;;13.60;12.67;;;31.40;67.30;;;;;;5014437;28;20770;-70
2021/09/25 16:16:55;;;;;;;13.40;12.60;;;31.30;68.70;;;;;;5012198;28;20472;-69
2021/09/25 16:19:23;;;;;;;12.53;11.77;;;31.20;68.80;;;;;;5009847;28;20462;-72
2021/09/25 16:21:50;;;;;;;13.13;12.53;;;30.50;69.30;;;;;;5020765;27;20950;-70
2021/09/25 16:24:17;;;;;;;12.83;12.20;;;30.60;70.50;;;;;;5010929;28;20461;-72
2021/09/25 16:26:45;;;;;;;12.60;11.90;;;30.90;69.70;;;;;;5005966;28;20462;-72
2021/09/25 16:29:12;;;;;;;12.53;12.03;;;31.00;70.50;;;;;;5010862;28;20458;-71
2021/09/25 16:31:40;;;;;;;12.20;11.60;;;31.00;70.20;;;;;;5006624;28;20473;-71
2021/09/25 16:34:08;;;;;;;12.40;11.90;;;30.70;70.20;;;;;;5005824;28;20465;-70
2021/09/25 16:36:35;;;;;;;12.43;11.60;;;30.10;69.60;;;;;;5006488;28;20462;-71
2021/09/25 16:39:03;;;;;;;11.87;10.93;;;29.80;70.20;;;;;;5012913;28;20568;-70
2021/09/25 16:41:30;;;;;;;12.23;11.50;;;29.60;70.50;;;;;;5009240;28;21065;-70
2021/09/25 16:43:57;;;;;;;12.57;11.97;;;29.60;71.60;;;;;;5003575;28;20462;-73
2021/09/25 16:46:24;;;;;;;12.00;11.50;;;29.40;71.60;;;;;;5007976;28;20461;-70
2021/09/25 16:48:52;;;;;;;12.73;12.03;;;29.40;71.50;;;;;;5002958;28;21046;-70
2021/09/25 16:51:19;;;;;;;12.63;11.70;;;28.80;72.80;;;;;;5007644;28;20954;-70
2021/09/25 16:53:46;;;;;;;12.60;12.00;;;28.40;74.20;;;;;;5005093;28;20477;-70
2021/09/25 16:56:14;;;;;;;12.23;11.70;;;28.40;74.80;;;;;;5007210;28;20473;-74
2021/09/25 16:58:41;;;;;;;12.53;11.60;;;28.20;75.00;;;;;;5011222;28;20480;-71
2021/09/25 17:01:09;;;;;;;12.20;11.50;;;27.90;76.20;;;;;;5007769;28;20994;-70
2021/09/25 17:03:36;;;;;;;13.00;12.30;;;27.80;76.90;;;;;;5004557;28;21019;-71
2021/09/25 17:06:05;;;;;;;12.70;12.00;;;27.70;76.90;;;;;;5010578;28;20465;-70
2021/09/25 17:08:33;;;;;;;13.90;13.10;;;27.60;77.80;;;;;;5007961;28;20461;-71
2021/09/25 17:11:00;;;;;;;12.47;11.67;;;27.30;78.40;;;;;;5014273;28;20488;-70
2021/09/25 17:13:28;;;;;;;12.87;12.17;;;26.90;79.50;;;;;;5012905;28;20491;-70
2021/09/25 17:15:55;;;;;;;15.10;11.57;;;26.60;80.60;;;;;;5008199;28;20468;-73
2021/09/25 17:18:24;;;;;;;11.73;11.17;;;26.20;82.50;;;;;;5011879;28;20480;-70
2021/09/25 17:20:52;;;;;;;11.83;11.13;;;25.70;85.00;;;;;;5010346;28;20521;-71
2021/09/25 17:23:21;;;;;;;13.13;12.00;;;25.30;86.80;;;;;;5008993;28;20546;-69
2021/09/25 17:25:48;;;;;;;12.90;12.00;;;24.90;88.90;;;;;;5007012;28;20819;-70
2021/09/25 17:28:16;;;;;;;12.70;11.80;;;24.50;90.40;;;;;;5008326;28;20469;-70
2021/09/25 17:30:44;;;;;;;12.90;12.00;;;23.90;91.60;;;;;;5011456;28;20510;-69
2021/09/25 17:33:11;;;;;;;12.57;11.83;;;23.70;92.60;;;;;;5017140;28;20588;-71
2021/09/25 17:35:38;;;;;;;12.00;11.40;;;23.40;93.70;;;;;;5012466;28;20551;-70
2021/09/25 17:38:07;;;;;;;11.83;11.10;;;23.10;94.60;;;;;;5008230;28;20485;-70
2021/09/25 17:40:37;;;;;;;12.40;11.60;;;22.80;96.30;;;;;;5007908;28;20550;-70
2021/09/25 17:43:05;;;;;;;11.60;11.00;;;22.50;98.00;;;;;;5004443;28;20456;-71
2021/09/25 17:45:32;;;;;;;12.03;11.33;;;22.30;99.40;;;;;;5011985;28;20460;-73
2021/09/25 17:47:59;;;;;;;12.20;11.40;;;22.00;99.90;;;;;;5006413;28;20971;-70
2021/09/25 17:50:27;;;;;;;12.43;11.67;;;21.90;99.90;;;;;;5016871;28;20450;-70
2021/09/25 17:52:55;;;;;;;12.97;12.27;;;21.70;99.90;;;;;;5001452;28;20461;-72
2021/09/25 17:55:22;;;;;;;12.50;11.80;;;21.40;99.90;;;;;;5008421;28;20475;-72
2021/09/25 17:57:50;;;;;;;12.50;11.50;;;21.30;99.90;;;;;;5004398;28;20476;-71
2021/09/25 18:00:17;;;;;;;12.67;11.63;;;21.10;99.90;;;;;;5009910;28;20487;-72
2021/09/25 18:02:44;;;;;;;12.70;12.10;;;21.00;99.90;;;;;;5011166;28;20468;-71
2021/09/25 18:05:12;;;;;;;15.63;13.17;;;20.90;99.90;;;;;;5010278;28;20467;-71
2021/09/25 18:07:40;;;;;;;13.87;12.53;;;20.70;99.90;;;;;;5013377;28;20474;-69
2021/09/25 18:10:09;;;;;;;13.63;12.40;;;20.60;99.90;;;;;;5012016;27;20469;-70
2021/09/25 18:12:38;;;;;;;14.73;13.60;;;20.40;99.90;;;;;;5010601;28;20541;-73
2021/09/25 18:15:08;;;;;;;14.77;13.57;;;20.30;99.90;;;;;;5014610;28;20889;-70
2021/09/25 18:17:34;;;;;;;21.33;14.77;;;20.10;99.90;;;;;;5013085;28;20464;-70
2021/09/25 18:20:03;;;;;;;15.30;14.20;;;20.00;99.90;;;;;;5013113;28;20481;-69
2021/09/25 18:22:34;;;;;;;16.33;14.83;;;19.90;99.90;;;;;;5040396;27;20463;-70
2021/09/25 18:25:02;;;;;;;14.97;13.30;;;19.80;99.90;;;;;;5015159;28;20545;-69
2021/09/25 18:27:29;;;;;;;14.80;13.50;;;19.70;99.90;;;;;;5011301;28;20458;-70
2021/09/25 18:29:57;;;;;;;15.20;13.07;;;19.60;99.90;;;;;;5015718;28;20494;-72
2021/09/25 18:32:26;;;;;;;14.53;13.63;;;19.40;99.90;;;;;;5017020;28;20468;-72
2021/09/25 18:34:56;;;;;;;14.93;13.50;;;19.30;99.90;;;;;;5012331;28;20807;-70
2021/09/25 18:37:24;;;;;;;14.70;13.40;;;19.20;99.90;;;;;;5009874;28;20492;-71
2021/09/25 18:39:52;;;;;;;15.30;13.93;;;19.00;99.90;;;;;;5012323;28;20477;-72
2021/09/25 18:42:20;;;;;;;15.30;13.97;;;18.90;99.90;;;;;;5008318;28;20464;-70
2021/09/25 18:44:49;;;;;;;15.47;13.80;;;18.80;99.90;;;;;;5008309;28;20458;-69
2021/09/25 18:47:17;;;;;;;19.27;14.03;;;18.70;99.90;;;;;;5013318;28;20464;-71
2021/09/25 18:49:47;;;;;;;16.10;14.40;;;18.60;99.90;;;;;;5009514;28;20465;-70
2021/09/25 18:52:14;;;;;;;14.70;13.60;;;18.50;99.90;;;;;;5012441;28;20454;-70
2021/09/25 18:54:41;;;;;;;29.50;14.67;;;18.40;99.90;;;;;;5014292;28;20464;-71
2021/09/25 18:57:08;;;;;;;31.13;14.67;;;18.30;99.90;;;;;;5017541;28;20464;-70
2021/09/25 18:59:37;;;;;;;14.80;13.50;;;18.20;99.90;;;;;;5009667;28;20468;-70
2021/09/25 19:02:04;;;;;;;14.53;13.60;;;18.10;99.90;;;;;;5012745;28;20492;-69
2021/09/25 19:04:31;;;;;;;16.20;12.50;;;18.00;99.90;;;;;;5009572;28;20477;-70
2021/09/25 19:06:59;;;;;;;15.33;14.13;;;17.90;99.90;;;;;;5016297;28;20461;-71
2021/09/25 19:09:28;;;;;;;14.60;13.40;;;17.90;99.90;;;;;;5008871;28;20472;-71
2021/09/25 19:11:55;;;;;;;18.50;13.27;;;17.80;99.90;;;;;;5020065;28;20480;-72
2021/09/25 19:14:22;;;;;;;14.00;13.10;;;17.70;99.90;;;;;;5013023;28;20483;-71
2021/09/25 19:16:50;;;;;;;14.20;13.30;;;17.60;99.90;;;;;;5012056;28;20856;-71
2021/09/25 19:19:18;;;;;;;15.80;14.30;;;17.50;99.90;;;;;;5009127;28;20809;-70
2021/09/25 19:21:45;;;;;;;15.77;14.47;;;17.40;99.90;;;;;;5019946;28;20484;-72
2021/09/25 19:24:14;;;;;;;15.40;14.20;;;17.40;99.90;;;;;;5007883;28;20454;-71
2021/09/25 19:26:41;;;;;;;15.30;13.80;;;17.20;99.90;;;;;;5007069;28;20782;-71
2021/09/25 19:29:08;;;;;;;14.43;13.47;;;17.10;99.90;;;;;;5014384;28;20454;-70
2021/09/25 19:31:36;;;;;;;15.33;13.73;;;17.00;99.90;;;;;;5009076;28;20477;-70
2021/09/25 19:34:04;;;;;;;14.87;13.87;;;16.90;99.90;;;;;;5015018;28;20459;-70
2021/09/25 19:36:32;;;;;;;14.90;13.40;;;16.90;99.90;;;;;;5013786;28;20457;-72
2021/09/25 19:39:00;;;;;;;14.23;12.93;;;16.90;99.90;;;;;;5010583;28;21332;-72
2021/09/25 19:41:28;;;;;;;14.77;13.37;;;16.80;99.90;;;;;;5019060;28;20499;-71
2021/09/25 19:43:55;;;;;;;16.17;14.73;;;16.80;99.90;;;;;;5016202;28;20468;-70
2021/09/25 19:46:23;;;;;;;16.77;15.37;;;16.70;99.90;;;;;;5015829;28;20461;-70
2021/09/25 19:48:50;;;;;;;17.47;13.20;;;16.60;99.90;;;;;;5012529;28;20530;-70
2021/09/25 19:51:17;;;;;;;14.60;13.23;;;16.50;99.90;;;;;;5013959;28;20461;-72
2021/09/25 19:53:45;;;;;;;18.50;13.70;;;16.40;99.90;;;;;;5011376;28;20457;-70
2021/09/25 19:56:14;;;;;;;19.70;14.17;;;16.40;99.90;;;;;;5008066;28;20941;-70
2021/09/25 19:58:42;;;;;;;15.43;13.27;;;16.30;99.90;;;;;;5013076;28;20461;-70
2021/09/25 20:01:09;;;;;;;16.93;13.77;;;16.30;99.90;;;;;;5011730;28;20979;-70
2021/09/25 20:03:38;;;;;;;17.40;13.57;;;16.30;99.90;;;;;;5014395;28;20478;-70
2021/09/25 20:06:05;;;;;;;23.03;13.20;;;16.20;99.90;;;;;;5009626;28;20813;-70
2021/09/25 20:08:32;;;;;;;25.67;14.70;;;16.30;99.90;;;;;;5009769;28;20465;-71
2021/09/25 20:11:04;;;;;;;24.97;13.90;;;16.30;99.90;;;;;;5013374;28;20463;-71
2021/09/25 20:13:34;;;;;;;31.10;13.60;;;16.30;99.90;;;;;;5012755;28;21066;-70
2021/09/25 20:16:02;;;;;;;42.07;14.57;;;16.30;99.90;;;;;;5010466;28;20469;-70
2021/09/25 20:18:31;;;;;;;48.40;16.03;;;16.30;99.90;;;;;;5010676;28;20453;-70
2021/09/25 20:21:00;;;;;;;27.47;14.83;;;16.20;99.90;;;;;;5018124;28;20765;-70
2021/09/25 20:23:28;;;;;;;29.33;14.20;;;16.20;99.90;;;;;;5035653;27;20944;-71
2021/09/25 20:25:55;;;;;;;32.40;15.47;;;16.10;99.90;;;;;;5019842;28;20456;-69
2021/09/25 20:28:24;;;;;;;32.87;15.20;;;16.10;99.90;;;;;;5015538;28;20469;-70
2021/09/25 20:30:51;;;;;;;30.27;14.63;;;16.10;99.90;;;;;;5011970;28;20471;-72
2021/09/25 20:33:20;;;;;;;28.83;14.50;;;16.10;99.90;;;;;;5015310;28;20461;-72
2021/09/25 20:35:48;;;;;;;18.13;14.03;;;16.00;99.90;;;;;;5009488;28;20458;-70
2021/09/25 20:38:15;;;;;;;23.47;15.77;;;16.00;99.90;;;;;;5009432;28;20515;-70
2021/09/25 20:40:44;;;;;;;23.33;14.07;;;16.00;99.90;;;;;;5018413;28;20453;-69
2021/09/25 20:43:11;;;;;;;24.23;14.20;;;16.00;99.90;;;;;;5011375;28;20460;-71
2021/09/25 20:45:39;;;;;;;17.93;14.10;;;15.90;99.90;;;;;;5016538;28;20563;-70
2021/09/25 20:48:07;;;;;;;27.10;14.70;;;16.00;99.90;;;;;;5011606;28;20457;-71
2021/09/25 20:50:37;;;;;;;20.50;14.90;;;16.00;99.90;;;;;;5017034;28;20928;-71
2021/09/25 20:53:04;;;;;;;16.93;14.47;;;15.90;99.90;;;;;;5008581;28;20450;-70
2021/09/25 20:55:32;;;;;;;21.60;14.37;;;15.90;99.90;;;;;;5013838;28;20778;-72
2021/09/25 20:58:00;;;;;;;18.57;13.87;;;15.90;99.90;;;;;;5015990;28;20458;-71
2021/09/25 21:00:30;;;;;;;22.03;14.00;;;15.80;99.90;;;;;;5009390;28;20841;-70
2021/09/25 21:02:58;;;;;;;28.33;15.37;;;15.80;99.90;;;;;;5010806;28;20493;-71
2021/09/25 21:05:28;;;;;;;24.70;15.00;;;15.70;99.90;;;;;;5013291;28;20950;-70
2021/09/25 21:07:56;;;;;;;19.70;14.03;;;15.70;99.90;;;;;;5011318;28;20891;-71
2021/09/25 21:10:24;;;;;;;19.77;14.70;;;15.60;99.90;;;;;;5017052;28;20547;-70
2021/09/25 21:12:52;;;;;;;16.90;15.13;;;15.60;99.90;;;;;;5014180;28;20460;-71
2021/09/25 21:15:20;;;;;;;18.70;14.60;;;15.60;99.90;;;;;;5016237;28;20515;-70
2021/09/25 21:17:47;;;;;;;18.17;15.10;;;15.50;99.90;;;;;;5017800;28;20473;-70
2021/09/25 21:20:14;;;;;;;16.73;15.03;;;15.40;99.90;;;;;;5010713;28;20970;-71
2021/09/25 21:22:41;;;;;;;20.33;16.47;;;15.30;99.90;;;;;;5012971;28;20499;-72
2021/09/25 21:25:11;;;;;;;20.07;15.53;;;15.20;99.90;;;;;;5014634;28;20505;-71
2021/09/25 21:27:39;;;;;;;25.70;16.10;;;15.10;99.90;;;;;;5014386;28;20454;-72
2021/09/25 21:30:08;;;;;;;22.87;17.10;;;15.00;99.90;;;;;;5011119;28;20469;-70
2021/09/25 21:32:35;;;;;;;27.67;16.73;;;15.00;99.90;;;;;;5012190;28;20571;-69
2021/09/25 21:35:03;;;;;;;17.70;15.80;;;15.00;99.90;;;;;;5008533;28;21010;-69
2021/09/25 21:37:30;;;;;;;23.03;16.87;;;14.90;99.90;;;;;;5009771;28;20472;-70
2021/09/25 21:39:57;;;;;;;18.83;17.23;;;14.90;99.90;;;;;;5016101;28;20461;-70
2021/09/25 21:42:26;;;;;;;18.77;17.00;;;14.80;99.90;;;;;;5012853;28;20489;-69
2021/09/25 21:44:54;;;;;;;18.27;16.77;;;14.70;99.90;;;;;;5013686;28;20480;-70
2021/09/25 21:47:21;;;;;;;18.93;17.03;;;14.70;99.90;;;;;;5015963;28;20449;-70
2021/09/25 21:49:48;;;;;;;17.43;16.13;;;14.70;99.90;;;;;;5008158;28;20944;-70
2021/09/25 21:52:15;;;;;;;17.73;15.97;;;14.70;99.90;;;;;;5006360;28;20450;-70
2021/09/25 21:54:43;;;;;;;19.53;16.47;;;14.80;99.90;;;;;;5011457;28;20462;-70
2021/09/25 21:57:11;;;;;;;21.20;15.60;;;14.80;99.90;;;;;;5008330;28;20553;-69
2021/09/25 21:59:39;;;;;;;18.40;15.60;;;14.80;99.90;;;;;;5017079;28;20944;-70
2021/09/25 22:02:10;;;;;;;18.97;16.23;;;14.90;99.90;;;;;;5015229;27;20995;-70
2021/09/25 22:04:37;;;;;;;18.03;16.30;;;15.10;99.90;;;;;;5021026;28;20497;-69
2021/09/25 22:07:04;;;;;;;20.13;15.50;;;15.20;99.90;;;;;;5014940;28;20995;-70
2021/09/25 22:09:33;;;;;;;17.07;15.30;;;15.30;99.90;;;;;;5013012;28;20453;-72
2021/09/25 22:12:00;;;;;;;18.13;16.50;;;15.40;99.90;;;;;;5012999;28;20488;-69
2021/09/25 22:14:30;;;;;;;22.10;17.77;;;15.50;99.90;;;;;;5018290;28;20492;-71
2021/09/25 22:16:58;;;;;;;28.60;16.17;;;15.50;99.90;;;;;;5016845;27;20493;-71
2021/09/25 22:19:25;;;;;;;18.27;16.67;;;15.50;99.90;;;;;;5018687;28;20453;-71
2021/09/25 22:21:54;;;;;;;22.73;16.50;;;15.50;99.90;;;;;;5022526;27;20866;-71
2021/09/25 22:24:21;;;;;;;19.37;16.03;;;15.60;99.90;;;;;;5012277;28;20496;-71
2021/09/25 22:26:48;;;;;;;16.00;14.73;;;15.60;99.90;;;;;;5015862;28;20464;-70
2021/09/25 22:29:15;;;;;;;16.40;15.30;;;15.50;99.90;;;;;;5019730;28;20465;-70
2021/09/25 22:31:42;;;;;;;19.57;16.20;;;15.40;99.90;;;;;;5011369;28;20468;-71
2021/09/25 22:34:10;;;;;;;20.97;15.23;;;15.40;99.90;;;;;;5005826;28;20458;-72
2021/09/25 22:36:44;;;;;;;19.53;15.80;;;15.40;99.90;;;;;;5010212;28;20494;-70
2021/09/25 22:39:11;;;;;;;20.80;16.00;;;15.30;99.90;;;;;;5014812;28;20484;-72
2021/09/25 22:41:39;;;;;;;23.53;15.27;;;15.40;99.90;;;;;;5012734;28;20496;-70
2021/09/25 22:44:06;;;;;;;19.03;16.00;;;15.40;99.90;;;;;;5013990;28;20477;-70
2021/09/25 22:46:33;;;;;;;16.70;15.23;;;15.50;99.90;;;;;;5017494;28;20594;-70
2021/09/25 22:49:01;;;;;;;18.17;15.10;;;15.50;99.90;;;;;;5012041;28;20462;-69